sensor_id;sensor_type;location;lat;lon;timestamp;temperature;humidity
1179;DHT22;578;48.408;10.004;2023-12-20T00:01:57;4.60;99.90
1179;DHT22;578;48.408;10.004;2023-12-20T00:03:58;4.60;99.90
1179;DHT22;578;48.408;10.004;2023-12-20T00:06:00;4.60;99.90
1179;DHT22;578;48.408;10.004;2023-12-20T00:08:01;4.60;99.90
1179;DHT22;578;48.408;10.004;2023-12-20T00:10:05;4.60;99.90
1179;DHT22;578;48.408;10.004;2023-12-20T00:12:06;4.60;99.90
1179;DHT22;578;48.408;10.004;2023-12-20T00:14:08;4.60;99.90
1179;DHT22;578;48.408;10.004;2023-12-20T00:16:10;4.70;99.90
1179;DHT22;578;48.408;10.004;2023-12-20T00:18:11;4.70;99.90
1179;DHT22;578;48.408;10.004;2023-12-20T00:20:13;4.70;99.90
1179;DHT22;578;48.408;10.004;2023-12-20T00:22:15;4.70;99.90
1179;DHT22;578;48.408;10.004;2023-12-20T00:24:17;4.70;99.90
1179;DHT22;578;48.408;10.004;2023-12-20T00:26:19;4.70;99.90
1179;DHT22;578;48.408;10.004;2023-12-20T00:28:21;4.70;99.90
1179;DHT22;578;48.408;10.004;2023-12-20T00:30:23;4.70;99.90
1179;DHT22;578;48.408;10.004;2023-12-20T00:32:25;4.80;99.90
1179;DHT22;578;48.408;10.004;2023-12-20T00:34:26;4.80;99.90
1179;DHT22;578;48.408;10.004;2023-12-20T00:36:28;4.80;99.90
1179;DHT22;578;48.408;10.004;2023-12-20T00:38:30;4.80;99.90
1179;DHT22;578;48.408;10.004;2023-12-20T00:40:31;4.80;99.90
1179;DHT22;578;48.408;10.004;2023-12-20T00:42:34;4.70;99.90
1179;DHT22;578;48.408;10.004;2023-12-20T00:44:36;4.80;99.90
1179;DHT22;578;48.408;10.004;2023-12-20T00:46:38;4.70;99.90
1179;DHT22;578;48.408;10.004;2023-12-20T00:48:40;4.70;99.90
1179;DHT22;578;48.408;10.004;2023-12-20T00:50:42;4.70;99.90
1179;DHT22;578;48.408;10.004;2023-12-20T00:52:44;4.70;99.90
1179;DHT22;578;48.408;10.004;2023-12-20T00:54:46;4.80;99.90
1179;DHT22;578;48.408;10.004;2023-12-20T00:56:48;4.70;99.90
1179;DHT22;578;48.408;10.004;2023-12-20T00:58:51;4.70;99.90
1179;DHT22;578;48.408;10.004;2023-12-20T01:00:52;4.70;99.90
1179;DHT22;578;48.408;10.004;2023-12-20T01:02:54;4.70;99.90
1179;DHT22;578;48.408;10.004;2023-12-20T01:04:56;4.70;99.90
1179;DHT22;578;48.408;10.004;2023-12-20T01:06:57;4.60;99.90
1179;DHT22;578;48.408;10.004;2023-12-20T01:08:59;4.60;99.90
1179;DHT22;578;48.408;10.004;2023-12-20T01:11:03;4.70;99.90
1179;DHT22;578;48.408;10.004;2023-12-20T01:13:05;4.70;99.90
1179;DHT22;578;48.408;10.004;2023-12-20T01:15:09;4.70;99.90
1179;DHT22;578;48.408;10.004;2023-12-20T01:17:11;4.60;99.90
1179;DHT22;578;48.408;10.004;2023-12-20T01:19:13;4.60;99.90
1179;DHT22;578;48.408;10.004;2023-12-20T01:21:15;4.60;99.90
1179;DHT22;578;48.408;10.004;2023-12-20T01:23:17;4.60;99.90
1179;DHT22;578;48.408;10.004;2023-12-20T01:25:19;4.60;99.90
1179;DHT22;578;48.408;10.004;2023-12-20T01:27:20;4.60;99.90
1179;DHT22;578;48.408;10.004;2023-12-20T01:29:22;4.70;99.90
1179;DHT22;578;48.408;10.004;2023-12-20T01:31:26;4.60;99.90
1179;DHT22;578;48.408;10.004;2023-12-20T01:33:28;4.60;99.90
1179;DHT22;578;48.408;10.004;2023-12-20T01:35:29;4.60;99.90
1179;DHT22;578;48.408;10.004;2023-12-20T01:37:31;4.60;99.90
1179;DHT22;578;48.408;10.004;2023-12-20T01:39:33;4.60;99.90
1179;DHT22;578;48.408;10.004;2023-12-20T01:41:35;4.60;99.90
1179;DHT22;578;48.408;10.004;2023-12-20T01:43:35;4.60;99.90
1179;DHT22;578;48.408;10.004;2023-12-20T01:45:37;4.60;99.90
1179;DHT22;578;48.408;10.004;2023-12-20T01:47:40;4.60;99.90
1179;DHT22;578;48.408;10.004;2023-12-20T01:49:42;4.60;99.90
1179;DHT22;578;48.408;10.004;2023-12-20T01:51:45;4.60;99.90
1179;DHT22;578;48.408;10.004;2023-12-20T01:53:47;4.60;99.90
1179;DHT22;578;48.408;10.004;2023-12-20T01:55:50;4.60;99.90
1179;DHT22;578;48.408;10.004;2023-12-20T01:57:53;4.60;99.90
1179;DHT22;578;48.408;10.004;2023-12-20T01:59:56;4.60;99.90
1179;DHT22;578;48.408;10.004;2023-12-20T02:01:58;4.60;99.90
1179;DHT22;578;48.408;10.004;2023-12-20T02:04:02;4.60;99.90
1179;DHT22;578;48.408;10.004;2023-12-20T02:06:04;4.60;99.90
1179;DHT22;578;48.408;10.004;2023-12-20T02:08:07;4.60;99.90
1179;DHT22;578;48.408;10.004;2023-12-20T02:10:09;4.60;99.90
1179;DHT22;578;48.408;10.004;2023-12-20T02:12:10;4.60;99.90
1179;DHT22;578;48.408;10.004;2023-12-20T02:14:12;4.60;99.90
1179;DHT22;578;48.408;10.004;2023-12-20T02:16:14;4.60;99.90
1179;DHT22;578;48.408;10.004;2023-12-20T02:18:15;4.60;99.90
1179;DHT22;578;48.408;10.004;2023-12-20T02:20:18;4.60;99.90
1179;DHT22;578;48.408;10.004;2023-12-20T02:22:21;4.50;99.90
1179;DHT22;578;48.408;10.004;2023-12-20T02:24:23;4.50;99.90
1179;DHT22;578;48.408;10.004;2023-12-20T02:26:24;4.40;99.90
1179;DHT22;578;48.408;10.004;2023-12-20T02:28:26;4.40;99.90
1179;DHT22;578;48.408;10.004;2023-12-20T02:30:28;4.40;99.90
1179;DHT22;578;48.408;10.004;2023-12-20T02:32:30;4.40;99.90
1179;DHT22;578;48.408;10.004;2023-12-20T02:34:31;4.40;99.90
1179;DHT22;578;48.408;10.004;2023-12-20T02:36:32;4.40;99.90
1179;DHT22;578;48.408;10.004;2023-12-20T02:38:35;4.40;99.90
1179;DHT22;578;48.408;10.004;2023-12-20T02:40:36;4.40;99.90
1179;DHT22;578;48.408;10.004;2023-12-20T02:42:38;4.40;99.90
1179;DHT22;578;48.408;10.004;2023-12-20T02:44:39;4.40;99.90
1179;DHT22;578;48.408;10.004;2023-12-20T02:46:41;4.40;99.90
1179;DHT22;578;48.408;10.004;2023-12-20T02:48:43;4.30;99.90
1179;DHT22;578;48.408;10.004;2023-12-20T02:50:45;4.30;99.90
1179;DHT22;578;48.408;10.004;2023-12-20T02:52:47;4.30;99.90
1179;DHT22;578;48.408;10.004;2023-12-20T02:54:50;4.30;99.90
1179;DHT22;578;48.408;10.004;2023-12-20T02:56:50;4.40;99.90
1179;DHT22;578;48.408;10.004;2023-12-20T02:58:52;4.40;99.90
1179;DHT22;578;48.408;10.004;2023-12-20T03:00:54;4.40;99.90
1179;DHT22;578;48.408;10.004;2023-12-20T03:02:56;4.40;99.90
1179;DHT22;578;48.408;10.004;2023-12-20T03:04:57;4.40;99.90
1179;DHT22;578;48.408;10.004;2023-12-20T03:07:00;4.30;99.90
1179;DHT22;578;48.408;10.004;2023-12-20T03:09:02;4.30;99.90
1179;DHT22;578;48.408;10.004;2023-12-20T03:11:06;4.30;99.90
1179;DHT22;578;48.408;10.004;2023-12-20T03:13:07;4.30;99.90
1179;DHT22;578;48.408;10.004;2023-12-20T03:15:10;4.30;99.90
1179;DHT22;578;48.408;10.004;2023-12-20T03:17:12;4.30;99.90
1179;DHT22;578;48.408;10.004;2023-12-20T03:19:14;4.30;99.90
1179;DHT22;578;48.408;10.004;2023-12-20T03:21:16;4.30;99.90
1179;DHT22;578;48.408;10.004;2023-12-20T03:23:18;4.30;99.90
1179;DHT22;578;48.408;10.004;2023-12-20T03:25:19;4.30;99.90
1179;DHT22;578;48.408;10.004;2023-12-20T03:27:22;4.30;99.90
1179;DHT22;578;48.408;10.004;2023-12-20T03:29:23;4.30;99.90
1179;DHT22;578;48.408;10.004;2023-12-20T03:31:24;4.30;99.90
1179;DHT22;578;48.408;10.004;2023-12-20T03:33:26;4.20;99.90
1179;DHT22;578;48.408;10.004;2023-12-20T03:35:28;4.30;99.90
1179;DHT22;578;48.408;10.004;2023-12-20T03:37:28;4.20;99.90
1179;DHT22;578;48.408;10.004;2023-12-20T03:39:30;4.30;99.90
1179;DHT22;578;48.408;10.004;2023-12-20T03:41:32;4.30;99.90
1179;DHT22;578;48.408;10.004;2023-12-20T03:43:35;4.30;99.90
1179;DHT22;578;48.408;10.004;2023-12-20T03:45:37;4.30;99.90
1179;DHT22;578;48.408;10.004;2023-12-20T03:47:38;4.20;99.90
1179;DHT22;578;48.408;10.004;2023-12-20T03:49:40;4.30;99.90
1179;DHT22;578;48.408;10.004;2023-12-20T03:51:42;4.20;99.90
1179;DHT22;578;48.408;10.004;2023-12-20T03:53:43;4.30;99.90
1179;DHT22;578;48.408;10.004;2023-12-20T03:55:45;4.30;99.90
1179;DHT22;578;48.408;10.004;2023-12-20T03:57:47;4.20;99.90
1179;DHT22;578;48.408;10.004;2023-12-20T03:59:50;4.30;99.90
1179;DHT22;578;48.408;10.004;2023-12-20T04:01:52;4.30;99.90
1179;DHT22;578;48.408;10.004;2023-12-20T04:03:54;4.30;99.90
1179;DHT22;578;48.408;10.004;2023-12-20T04:05:55;4.20;99.90
1179;DHT22;578;48.408;10.004;2023-12-20T04:07:57;4.30;99.90
1179;DHT22;578;48.408;10.004;2023-12-20T04:09:59;4.30;99.90
1179;DHT22;578;48.408;10.004;2023-12-20T04:12:01;4.30;99.90
1179;DHT22;578;48.408;10.004;2023-12-20T04:14:03;4.30;99.90
1179;DHT22;578;48.408;10.004;2023-12-20T04:16:06;4.30;99.90
1179;DHT22;578;48.408;10.004;2023-12-20T04:18:08;4.20;99.90
1179;DHT22;578;48.408;10.004;2023-12-20T04:20:09;4.20;99.90
1179;DHT22;578;48.408;10.004;2023-12-20T04:22:11;4.20;99.90
1179;DHT22;578;48.408;10.004;2023-12-20T04:24:13;4.20;99.90
1179;DHT22;578;48.408;10.004;2023-12-20T04:26:14;4.20;99.90
1179;DHT22;578;48.408;10.004;2023-12-20T04:28:15;4.30;99.90
1179;DHT22;578;48.408;10.004;2023-12-20T04:30:17;4.30;99.90
1179;DHT22;578;48.408;10.004;2023-12-20T04:32:21;4.30;99.90
1179;DHT22;578;48.408;10.004;2023-12-20T04:34:22;4.30;99.90
1179;DHT22;578;48.408;10.004;2023-12-20T04:36:23;4.30;99.90
1179;DHT22;578;48.408;10.004;2023-12-20T04:38:27;4.30;99.90
1179;DHT22;578;48.408;10.004;2023-12-20T04:40:29;4.30;99.90
1179;DHT22;578;48.408;10.004;2023-12-20T04:42:30;4.30;99.90
1179;DHT22;578;48.408;10.004;2023-12-20T04:44:32;4.30;99.90
1179;DHT22;578;48.408;10.004;2023-12-20T04:46:33;4.30;99.90
1179;DHT22;578;48.408;10.004;2023-12-20T04:48:36;4.30;99.90
1179;DHT22;578;48.408;10.004;2023-12-20T04:50:38;4.30;99.90
1179;DHT22;578;48.408;10.004;2023-12-20T04:52:40;4.30;99.90
1179;DHT22;578;48.408;10.004;2023-12-20T04:54:41;4.30;99.90
1179;DHT22;578;48.408;10.004;2023-12-20T04:56:42;4.30;99.90
1179;DHT22;578;48.408;10.004;2023-12-20T04:58:44;4.30;99.90
1179;DHT22;578;48.408;10.004;2023-12-20T05:00:46;4.30;99.90
1179;DHT22;578;48.408;10.004;2023-12-20T05:02:48;4.30;99.90
1179;DHT22;578;48.408;10.004;2023-12-20T05:04:51;4.30;99.90
1179;DHT22;578;48.408;10.004;2023-12-20T05:06:52;4.40;99.90
1179;DHT22;578;48.408;10.004;2023-12-20T05:08:54;4.30;99.90
1179;DHT22;578;48.408;10.004;2023-12-20T05:10:56;4.40;99.90
1179;DHT22;578;48.408;10.004;2023-12-20T05:12:58;4.40;99.90
1179;DHT22;578;48.408;10.004;2023-12-20T05:15:00;4.40;99.90
1179;DHT22;578;48.408;10.004;2023-12-20T05:17:02;4.40;99.90
1179;DHT22;578;48.408;10.004;2023-12-20T05:19:03;4.40;99.90
1179;DHT22;578;48.408;10.004;2023-12-20T05:21:08;4.30;99.90
1179;DHT22;578;48.408;10.004;2023-12-20T05:23:10;4.40;99.90
1179;DHT22;578;48.408;10.004;2023-12-20T05:25:12;4.40;99.90
1179;DHT22;578;48.408;10.004;2023-12-20T05:27:14;4.40;99.90
1179;DHT22;578;48.408;10.004;2023-12-20T05:29:15;4.40;99.90
1179;DHT22;578;48.408;10.004;2023-12-20T05:31:17;4.40;99.90
1179;DHT22;578;48.408;10.004;2023-12-20T05:33:19;4.40;99.90
1179;DHT22;578;48.408;10.004;2023-12-20T05:35:21;4.40;99.90
1179;DHT22;578;48.408;10.004;2023-12-20T05:37:25;4.40;99.90
1179;DHT22;578;48.408;10.004;2023-12-20T05:39:27;4.50;99.90
1179;DHT22;578;48.408;10.004;2023-12-20T05:41:28;4.40;99.90
1179;DHT22;578;48.408;10.004;2023-12-20T05:43:30;4.40;99.90
1179;DHT22;578;48.408;10.004;2023-12-20T05:45:32;4.40;99.90
1179;DHT22;578;48.408;10.004;2023-12-20T05:47:34;4.40;99.90
1179;DHT22;578;48.408;10.004;2023-12-20T05:49:35;4.40;99.90
1179;DHT22;578;48.408;10.004;2023-12-20T05:51:37;4.40;99.90
1179;DHT22;578;48.408;10.004;2023-12-20T05:53:39;4.40;99.90
1179;DHT22;578;48.408;10.004;2023-12-20T05:55:41;4.50;99.90
1179;DHT22;578;48.408;10.004;2023-12-20T05:57:43;4.40;99.90
1179;DHT22;578;48.408;10.004;2023-12-20T05:59:44;4.40;99.90
1179;DHT22;578;48.408;10.004;2023-12-20T06:01:46;4.50;99.90
1179;DHT22;578;48.408;10.004;2023-12-20T06:03:48;4.50;99.90
1179;DHT22;578;48.408;10.004;2023-12-20T06:05:50;4.50;99.90
1179;DHT22;578;48.408;10.004;2023-12-20T06:07:50;4.50;99.90
1179;DHT22;578;48.408;10.004;2023-12-20T06:09:54;4.50;99.90
1179;DHT22;578;48.408;10.004;2023-12-20T06:11:55;4.50;99.90
1179;DHT22;578;48.408;10.004;2023-12-20T06:13:57;4.50;99.90
1179;DHT22;578;48.408;10.004;2023-12-20T06:15:59;4.50;99.90
1179;DHT22;578;48.408;10.004;2023-12-20T06:18:01;4.50;99.90
1179;DHT22;578;48.408;10.004;2023-12-20T06:20:04;4.50;99.90
1179;DHT22;578;48.408;10.004;2023-12-20T06:22:08;4.50;99.90
1179;DHT22;578;48.408;10.004;2023-12-20T06:24:09;4.50;99.90
1179;DHT22;578;48.408;10.004;2023-12-20T06:26:12;4.50;99.90
1179;DHT22;578;48.408;10.004;2023-12-20T06:28:13;4.50;99.90
1179;DHT22;578;48.408;10.004;2023-12-20T06:30:16;4.60;99.90
1179;DHT22;578;48.408;10.004;2023-12-20T06:32:18;4.60;99.90
1179;DHT22;578;48.408;10.004;2023-12-20T06:34:19;4.60;99.90
1179;DHT22;578;48.408;10.004;2023-12-20T06:36:21;4.60;99.90
1179;DHT22;578;48.408;10.004;2023-12-20T06:38:22;4.60;99.90
1179;DHT22;578;48.408;10.004;2023-12-20T06:40:24;4.60;99.90
1179;DHT22;578;48.408;10.004;2023-12-20T06:42:26;4.60;99.90
1179;DHT22;578;48.408;10.004;2023-12-20T06:44:28;4.60;99.90
1179;DHT22;578;48.408;10.004;2023-12-20T06:46:29;4.60;99.90
1179;DHT22;578;48.408;10.004;2023-12-20T06:48:31;4.60;99.90
1179;DHT22;578;48.408;10.004;2023-12-20T06:50:33;4.60;99.90
1179;DHT22;578;48.408;10.004;2023-12-20T06:52:34;4.60;99.90
1179;DHT22;578;48.408;10.004;2023-12-20T06:54:36;4.60;99.90
1179;DHT22;578;48.408;10.004;2023-12-20T06:56:38;4.70;99.90
1179;DHT22;578;48.408;10.004;2023-12-20T06:58:41;4.70;99.90
1179;DHT22;578;48.408;10.004;2023-12-20T07:00:42;4.60;99.90
1179;DHT22;578;48.408;10.004;2023-12-20T07:02:44;4.70;99.90
1179;DHT22;578;48.408;10.004;2023-12-20T07:04:46;4.70;99.90
1179;DHT22;578;48.408;10.004;2023-12-20T07:06:47;4.60;99.90
1179;DHT22;578;48.408;10.004;2023-12-20T07:08:48;4.60;99.90
1179;DHT22;578;48.408;10.004;2023-12-20T07:10:50;4.60;99.90
1179;DHT22;578;48.408;10.004;2023-12-20T07:12:52;4.70;99.90
1179;DHT22;578;48.408;10.004;2023-12-20T07:14:56;4.70;99.90
1179;DHT22;578;48.408;10.004;2023-12-20T07:16:58;4.70;99.90
1179;DHT22;578;48.408;10.004;2023-12-20T07:19:00;4.70;99.90
1179;DHT22;578;48.408;10.004;2023-12-20T07:21:02;4.70;99.90
1179;DHT22;578;48.408;10.004;2023-12-20T07:23:04;4.70;99.90
1179;DHT22;578;48.408;10.004;2023-12-20T07:25:06;4.70;99.90
1179;DHT22;578;48.408;10.004;2023-12-20T07:27:08;4.70;99.90
1179;DHT22;578;48.408;10.004;2023-12-20T07:29:10;4.70;99.90
1179;DHT22;578;48.408;10.004;2023-12-20T07:31:15;4.70;99.90
1179;DHT22;578;48.408;10.004;2023-12-20T07:33:16;4.70;99.90
1179;DHT22;578;48.408;10.004;2023-12-20T07:35:18;4.70;99.90
1179;DHT22;578;48.408;10.004;2023-12-20T07:37:19;4.70;99.90
1179;DHT22;578;48.408;10.004;2023-12-20T07:39:21;4.70;99.90
1179;DHT22;578;48.408;10.004;2023-12-20T07:41:23;4.80;99.90
1179;DHT22;578;48.408;10.004;2023-12-20T07:43:25;4.70;99.90
1179;DHT22;578;48.408;10.004;2023-12-20T07:45:26;4.70;99.90
1179;DHT22;578;48.408;10.004;2023-12-20T07:47:29;4.70;99.90
1179;DHT22;578;48.408;10.004;2023-12-20T07:49:30;4.70;99.90
1179;DHT22;578;48.408;10.004;2023-12-20T07:51:32;4.80;99.90
1179;DHT22;578;48.408;10.004;2023-12-20T07:53:33;4.70;99.90
1179;DHT22;578;48.408;10.004;2023-12-20T07:55:35;4.70;99.90
1179;DHT22;578;48.408;10.004;2023-12-20T07:57:37;4.70;99.90
1179;DHT22;578;48.408;10.004;2023-12-20T07:59:39;4.70;99.90
1179;DHT22;578;48.408;10.004;2023-12-20T08:01:40;4.80;99.90
1179;DHT22;578;48.408;10.004;2023-12-20T08:03:44;4.70;99.90
1179;DHT22;578;48.408;10.004;2023-12-20T08:05:47;4.80;99.90
1179;DHT22;578;48.408;10.004;2023-12-20T08:07:48;4.80;99.90
1179;DHT22;578;48.408;10.004;2023-12-20T08:09:50;4.90;99.90
1179;DHT22;578;48.408;10.004;2023-12-20T08:11:52;4.90;99.90
1179;DHT22;578;48.408;10.004;2023-12-20T08:13:54;4.90;99.90
1179;DHT22;578;48.408;10.004;2023-12-20T08:15:55;4.90;99.90
1179;DHT22;578;48.408;10.004;2023-12-20T08:17:56;4.90;99.90
1179;DHT22;578;48.408;10.004;2023-12-20T08:19:59;5.00;99.90
1179;DHT22;578;48.408;10.004;2023-12-20T08:22:01;5.00;99.90
1179;DHT22;578;48.408;10.004;2023-12-20T08:24:04;5.00;99.90
1179;DHT22;578;48.408;10.004;2023-12-20T08:26:05;5.00;99.90
1179;DHT22;578;48.408;10.004;2023-12-20T08:28:06;5.00;99.90
1179;DHT22;578;48.408;10.004;2023-12-20T08:30:09;5.10;99.90
1179;DHT22;578;48.408;10.004;2023-12-20T08:32:11;5.00;99.90
1179;DHT22;578;48.408;10.004;2023-12-20T08:34:13;5.00;99.90
1179;DHT22;578;48.408;10.004;2023-12-20T08:36:17;5.10;99.90
1179;DHT22;578;48.408;10.004;2023-12-20T08:38:21;5.10;99.90
1179;DHT22;578;48.408;10.004;2023-12-20T08:40:23;5.10;99.90
1179;DHT22;578;48.408;10.004;2023-12-20T08:42:24;5.10;99.90
1179;DHT22;578;48.408;10.004;2023-12-20T08:44:31;5.10;99.90
1179;DHT22;578;48.408;10.004;2023-12-20T08:46:33;5.20;99.90
1179;DHT22;578;48.408;10.004;2023-12-20T08:48:35;5.20;99.90
1179;DHT22;578;48.408;10.004;2023-12-20T08:50:37;5.20;99.90
1179;DHT22;578;48.408;10.004;2023-12-20T08:52:40;5.20;99.90
1179;DHT22;578;48.408;10.004;2023-12-20T08:54:42;5.20;99.90
1179;DHT22;578;48.408;10.004;2023-12-20T08:56:44;5.20;99.90
1179;DHT22;578;48.408;10.004;2023-12-20T08:58:46;5.20;99.90
1179;DHT22;578;48.408;10.004;2023-12-20T09:00:47;5.20;99.90
1179;DHT22;578;48.408;10.004;2023-12-20T09:02:49;5.20;99.90
1179;DHT22;578;48.408;10.004;2023-12-20T09:04:51;5.20;99.90
1179;DHT22;578;48.408;10.004;2023-12-20T09:06:53;5.20;99.90
1179;DHT22;578;48.408;10.004;2023-12-20T09:08:55;5.20;99.90
1179;DHT22;578;48.408;10.004;2023-12-20T09:10:57;5.30;99.90
1179;DHT22;578;48.408;10.004;2023-12-20T09:12:58;5.30;99.90
1179;DHT22;578;48.408;10.004;2023-12-20T09:15:00;5.40;99.90
1179;DHT22;578;48.408;10.004;2023-12-20T09:17:03;5.40;99.90
1179;DHT22;578;48.408;10.004;2023-12-20T09:19:05;5.50;99.90
1179;DHT22;578;48.408;10.004;2023-12-20T09:21:07;5.60;99.90
1179;DHT22;578;48.408;10.004;2023-12-20T09:23:09;5.60;99.90
1179;DHT22;578;48.408;10.004;2023-12-20T09:25:12;5.70;99.90
1179;DHT22;578;48.408;10.004;2023-12-20T09:27:15;5.80;99.90
1179;DHT22;578;48.408;10.004;2023-12-20T09:29:17;5.90;99.90
1179;DHT22;578;48.408;10.004;2023-12-20T09:31:19;5.90;99.90
1179;DHT22;578;48.408;10.004;2023-12-20T09:33:20;6.10;99.90
1179;DHT22;578;48.408;10.004;2023-12-20T09:35:22;6.10;99.90
1179;DHT22;578;48.408;10.004;2023-12-20T09:37:25;6.10;99.90
1179;DHT22;578;48.408;10.004;2023-12-20T09:39:27;6.20;99.90
1179;DHT22;578;48.408;10.004;2023-12-20T09:41:32;6.10;99.90
1179;DHT22;578;48.408;10.004;2023-12-20T09:43:37;6.10;99.90
1179;DHT22;578;48.408;10.004;2023-12-20T09:45:40;6.10;99.90
1179;DHT22;578;48.408;10.004;2023-12-20T09:47:43;6.10;99.90
1179;DHT22;578;48.408;10.004;2023-12-20T09:49:46;6.00;99.90
1179;DHT22;578;48.408;10.004;2023-12-20T09:51:48;6.00;99.90
1179;DHT22;578;48.408;10.004;2023-12-20T09:53:54;6.00;99.90
1179;DHT22;578;48.408;10.004;2023-12-20T09:55:58;6.00;99.90
1179;DHT22;578;48.408;10.004;2023-12-20T09:58:02;6.00;99.90
1179;DHT22;578;48.408;10.004;2023-12-20T10:00:05;6.00;99.90
1179;DHT22;578;48.408;10.004;2023-12-20T10:02:13;6.10;99.90
1179;DHT22;578;48.408;10.004;2023-12-20T10:04:16;6.10;99.90
1179;DHT22;578;48.408;10.004;2023-12-20T10:06:18;6.10;99.90
1179;DHT22;578;48.408;10.004;2023-12-20T10:08:21;6.10;99.90
1179;DHT22;578;48.408;10.004;2023-12-20T10:10:23;6.00;99.90
1179;DHT22;578;48.408;10.004;2023-12-20T10:12:25;5.90;99.90
1179;DHT22;578;48.408;10.004;2023-12-20T10:14:28;5.90;99.90
1179;DHT22;578;48.408;10.004;2023-12-20T10:16:30;5.90;99.90
1179;DHT22;578;48.408;10.004;2023-12-20T10:18:33;6.00;99.90
1179;DHT22;578;48.408;10.004;2023-12-20T10:20:34;6.00;99.90
1179;DHT22;578;48.408;10.004;2023-12-20T10:22:37;6.20;99.90
1179;DHT22;578;48.408;10.004;2023-12-20T10:24:40;6.30;99.90
1179;DHT22;578;48.408;10.004;2023-12-20T10:26:42;6.30;99.90
1179;DHT22;578;48.408;10.004;2023-12-20T10:28:44;6.30;99.90
1179;DHT22;578;48.408;10.004;2023-12-20T10:30:47;6.40;99.90
1179;DHT22;578;48.408;10.004;2023-12-20T10:32:49;6.40;99.90
1179;DHT22;578;48.408;10.004;2023-12-20T10:34:50;6.40;99.90
1179;DHT22;578;48.408;10.004;2023-12-20T10:36:52;6.30;99.90
1179;DHT22;578;48.408;10.004;2023-12-20T10:38:55;6.30;99.90
1179;DHT22;578;48.408;10.004;2023-12-20T10:40:58;6.20;99.90
1179;DHT22;578;48.408;10.004;2023-12-20T10:43:01;6.10;99.90
1179;DHT22;578;48.408;10.004;2023-12-20T10:45:04;6.10;99.90
1179;DHT22;578;48.408;10.004;2023-12-20T10:47:09;5.90;99.90
1179;DHT22;578;48.408;10.004;2023-12-20T10:49:12;5.80;99.90
1179;DHT22;578;48.408;10.004;2023-12-20T10:51:17;5.80;99.90
1179;DHT22;578;48.408;10.004;2023-12-20T10:53:19;5.60;99.90
1179;DHT22;578;48.408;10.004;2023-12-20T10:55:21;5.60;99.90
1179;DHT22;578;48.408;10.004;2023-12-20T10:57:23;5.70;99.90
1179;DHT22;578;48.408;10.004;2023-12-20T10:59:28;5.70;99.90
1179;DHT22;578;48.408;10.004;2023-12-20T11:01:31;5.70;99.90
1179;DHT22;578;48.408;10.004;2023-12-20T11:03:36;5.70;99.90
1179;DHT22;578;48.408;10.004;2023-12-20T11:05:44;5.80;99.90
1179;DHT22;578;48.408;10.004;2023-12-20T11:07:52;5.70;99.90
1179;DHT22;578;48.408;10.004;2023-12-20T11:09:58;5.70;99.90
1179;DHT22;578;48.408;10.004;2023-12-20T11:12:07;5.80;99.90
1179;DHT22;578;48.408;10.004;2023-12-20T11:14:17;5.80;99.90
1179;DHT22;578;48.408;10.004;2023-12-20T11:16:20;5.90;99.90
1179;DHT22;578;48.408;10.004;2023-12-20T11:18:28;6.10;99.90
1179;DHT22;578;48.408;10.004;2023-12-20T11:20:37;6.20;99.90
1179;DHT22;578;48.408;10.004;2023-12-20T11:22:40;6.40;99.90
1179;DHT22;578;48.408;10.004;2023-12-20T11:24:52;6.50;99.90
1179;DHT22;578;48.408;10.004;2023-12-20T11:26:56;6.60;99.90
1179;DHT22;578;48.408;10.004;2023-12-20T11:29:31;6.50;99.90
1179;DHT22;578;48.408;10.004;2023-12-20T11:31:40;6.40;99.90
1179;DHT22;578;48.408;10.004;2023-12-20T11:33:42;6.20;99.90
1179;DHT22;578;48.408;10.004;2023-12-20T11:35:46;6.40;99.90
1179;DHT22;578;48.408;10.004;2023-12-20T11:37:48;6.50;99.90
1179;DHT22;578;48.408;10.004;2023-12-20T11:39:55;6.50;99.90
1179;DHT22;578;48.408;10.004;2023-12-20T11:41:57;6.30;99.90
1179;DHT22;578;48.408;10.004;2023-12-20T11:43:58;6.30;99.90
1179;DHT22;578;48.408;10.004;2023-12-20T11:46:05;6.40;99.90
1179;DHT22;578;48.408;10.004;2023-12-20T11:48:07;6.40;99.90
1179;DHT22;578;48.408;10.004;2023-12-20T11:50:09;6.20;99.90
1179;DHT22;578;48.408;10.004;2023-12-20T11:52:13;6.30;99.90
1179;DHT22;578;48.408;10.004;2023-12-20T11:54:15;6.30;99.90
1179;DHT22;578;48.408;10.004;2023-12-20T11:56:17;6.20;99.90
1179;DHT22;578;48.408;10.004;2023-12-20T11:58:19;6.20;99.90
1179;DHT22;578;48.408;10.004;2023-12-20T12:00:21;6.30;99.90
1179;DHT22;578;48.408;10.004;2023-12-20T12:02:22;6.30;99.90
1179;DHT22;578;48.408;10.004;2023-12-20T12:04:24;6.20;99.90
1179;DHT22;578;48.408;10.004;2023-12-20T12:06:26;6.20;99.90
1179;DHT22;578;48.408;10.004;2023-12-20T12:08:28;6.20;99.90
1179;DHT22;578;48.408;10.004;2023-12-20T12:10:30;6.30;99.90
1179;DHT22;578;48.408;10.004;2023-12-20T12:12:32;6.20;99.90
1179;DHT22;578;48.408;10.004;2023-12-20T12:14:34;6.30;99.90
1179;DHT22;578;48.408;10.004;2023-12-20T12:16:37;6.20;99.90
1179;DHT22;578;48.408;10.004;2023-12-20T12:18:39;6.10;99.90
1179;DHT22;578;48.408;10.004;2023-12-20T12:20:42;6.10;99.90
1179;DHT22;578;48.408;10.004;2023-12-20T12:22:44;6.00;99.90
1179;DHT22;578;48.408;10.004;2023-12-20T12:24:49;6.00;99.90
1179;DHT22;578;48.408;10.004;2023-12-20T12:26:51;5.90;99.90
1179;DHT22;578;48.408;10.004;2023-12-20T12:28:53;6.00;99.90
1179;DHT22;578;48.408;10.004;2023-12-20T12:30:58;6.00;99.90
1179;DHT22;578;48.408;10.004;2023-12-20T12:32:59;6.10;99.90
1179;DHT22;578;48.408;10.004;2023-12-20T12:35:03;6.20;99.90
1179;DHT22;578;48.408;10.004;2023-12-20T12:37:06;6.40;99.90
1179;DHT22;578;48.408;10.004;2023-12-20T12:39:08;6.50;99.90
1179;DHT22;578;48.408;10.004;2023-12-20T12:41:14;6.40;99.90
1179;DHT22;578;48.408;10.004;2023-12-20T12:43:16;6.30;99.90
1179;DHT22;578;48.408;10.004;2023-12-20T12:45:18;6.30;99.90
1179;DHT22;578;48.408;10.004;2023-12-20T12:47:19;6.30;99.90
1179;DHT22;578;48.408;10.004;2023-12-20T12:49:20;6.30;99.90
1179;DHT22;578;48.408;10.004;2023-12-20T12:51:22;6.30;99.90
1179;DHT22;578;48.408;10.004;2023-12-20T12:53:25;6.30;99.90
1179;DHT22;578;48.408;10.004;2023-12-20T12:55:26;6.10;99.90
1179;DHT22;578;48.408;10.004;2023-12-20T12:57:29;6.00;99.90
1179;DHT22;578;48.408;10.004;2023-12-20T12:59:31;5.90;99.90
1179;DHT22;578;48.408;10.004;2023-12-20T13:01:33;6.00;99.90
1179;DHT22;578;48.408;10.004;2023-12-20T13:03:35;5.90;99.90
1179;DHT22;578;48.408;10.004;2023-12-20T13:05:37;5.80;99.90
1179;DHT22;578;48.408;10.004;2023-12-20T13:07:38;5.80;99.90
1179;DHT22;578;48.408;10.004;2023-12-20T13:09:40;5.80;99.90
1179;DHT22;578;48.408;10.004;2023-12-20T13:11:42;5.80;99.90
1179;DHT22;578;48.408;10.004;2023-12-20T13:13:45;5.70;99.90
1179;DHT22;578;48.408;10.004;2023-12-20T13:15:47;5.60;99.90
1179;DHT22;578;48.408;10.004;2023-12-20T13:17:53;5.70;99.90
1179;DHT22;578;48.408;10.004;2023-12-20T13:19:55;5.70;99.90
1179;DHT22;578;48.408;10.004;2023-12-20T13:21:57;5.80;99.90
1179;DHT22;578;48.408;10.004;2023-12-20T13:23:58;5.80;99.90
1179;DHT22;578;48.408;10.004;2023-12-20T13:26:00;5.80;99.90
1179;DHT22;578;48.408;10.004;2023-12-20T13:28:01;5.80;99.90
1179;DHT22;578;48.408;10.004;2023-12-20T13:30:05;5.80;99.90
1179;DHT22;578;48.408;10.004;2023-12-20T13:32:07;5.80;99.90